Percy, Illinois
Current Conditions -  °F | °C
As of 10:55 PM on Friday 28 Nov 2014 (Local Time) from KSAR Reporting Station
Clear Clear  
Wind Chill: 37°   Ceiling: Unl
Heat Index: 42°   Visibility: 10mi
Dew Point: 33°   Wind: 10mph
Humidity: 69%   Direction: 180°S
Pressure: 29.95"   Gusts: NA
Location:  38.02°N, 89.62°W
Report Text: KSAR 290455Z AUTO 18009KT 10SM CLR 06/01 A2995 RMK AO2 T00580005
Loading
Personal Weather Stations






























Interactive Weather Map New forecast layout! Learn more

10-Day Weather Forecast

Advertisements
Track Severe Weather on mobile